Terminal Aerodrome Forecast
Issued by NWS Kansas City/Pleasant Hill, MO

Home | Current Version | Previous Version | Text Only | Print | Product List | Glossary On
Versions: 1 2 3 4 5 6 7 8 9 10 11 12
230
FTUS43 KEAX 031736
TAFMCI
TAF
KMCI 031736Z 0318/0418 31017G22KT P6SM BKN019
     FM031900 31014G20KT P6SM BKN025
     FM032100 31012KT P6SM SCT025
     FM040000 29006KT P6SM SKC
     FM041200 22007KT P6SM SKC=

USA.gov is the U.S. government's official web portal to all federal, state and local government web resources and services.